Quentin, Pennsylvania
Current Conditions -  °F | °C
As of 1:58 AM on Wednesday 26 Nov 2014 (Local Time) from KMUI Reporting Station
Clear Clear  
Wind Chill: 43°   Ceiling: Unl
Heat Index: 43°   Visibility: 10mi
Dew Point: 29°   Wind: 2mph
Humidity: 57%   Direction: NA
Pressure: 30.18"   Gusts: NA
Location:  40.28°N, 76.44°W
Report Text: KMUI 260658Z AUTO VRB02KT 10SM CLR 06/M02 A3018 RMK AO2 SLP225 T00621018 $
Loading
Personal Weather Stations






























Interactive Weather Map New forecast layout! Learn more

10-Day Weather Forecast

Advertisements
Track Severe Weather on mobile